createdAt,value
2023-04-16T00:01:10.328Z,27.73
2023-04-16T00:03:38.233Z,28.40
2023-04-16T00:06:06.606Z,28.33
2023-04-16T00:08:35.583Z,29.20
2023-04-16T00:11:03.392Z,29.30
2023-04-16T00:13:31.120Z,27.10
2023-04-16T00:16:00.350Z,29.55
2023-04-16T00:18:28.063Z,29.60
2023-04-16T00:20:55.926Z,27.48
2023-04-16T00:23:25.169Z,26.98
2023-04-16T00:25:53.617Z,29.58
2023-04-16T00:28:21.348Z,28.30
2023-04-16T00:30:49.145Z,26.40
2023-04-16T00:33:18.291Z,26.88
2023-04-16T00:35:46.565Z,30.83
2023-04-16T00:38:15.124Z,29.88
2023-04-16T00:40:43.023Z,28.23
2023-04-16T00:43:10.873Z,26.45
2023-04-16T00:45:39.565Z,24.30
2023-04-16T00:48:07.436Z,25.17
2023-04-16T00:50:36.651Z,24.88
2023-04-16T00:53:04.434Z,27.70
2023-04-16T00:55:32.398Z,30.70
2023-04-16T00:58:00.630Z,28.95
2023-04-16T01:00:28.410Z,29.23
2023-04-16T01:02:56.926Z,28.65
2023-04-16T01:05:24.778Z,26.02
2023-04-16T01:07:53.891Z,27.02
2023-04-16T01:10:21.661Z,28.40
2023-04-16T01:12:49.425Z,26.95
2023-04-16T01:15:17.268Z,29.67
2023-04-16T01:17:47.129Z,27.05
2023-04-16T01:20:15.009Z,33.28
2023-04-16T01:22:44.108Z,31.25
2023-04-16T01:25:15.784Z,30.48
2023-04-16T01:27:43.664Z,29.83
2023-04-16T01:30:11.983Z,29.60
2023-04-16T01:32:59.607Z,29.27
2023-04-16T01:35:27.558Z,28.60
2023-04-16T01:37:56.682Z,30.50
2023-04-16T01:40:24.572Z,27.02
2023-04-16T01:42:52.310Z,27.90
2023-04-16T01:45:20.316Z,32.10
2023-04-16T01:47:48.173Z,31.50
2023-04-16T01:50:15.955Z,30.08
2023-04-16T01:52:43.672Z,32.53
2023-04-16T01:55:13.031Z,28.63
2023-04-16T01:57:40.825Z,26.38
2023-04-16T02:00:09.693Z,27.75
2023-04-16T02:02:46.640Z,27.88
2023-04-16T02:05:19.716Z,24.50
2023-04-16T02:07:47.775Z,23.67
2023-04-16T02:10:16.970Z,27.80
2023-04-16T02:12:45.476Z,28.88
2023-04-16T02:15:15.739Z,27.02
2023-04-16T02:17:43.723Z,27.73
2023-04-16T02:20:12.644Z,27.08
2023-04-16T02:22:51.127Z,24.10
2023-04-16T02:25:23.120Z,25.58
2023-04-16T02:27:52.173Z,27.67
2023-04-16T02:30:27.600Z,26.65
2023-04-16T02:32:55.789Z,26.90
2023-04-16T02:35:23.580Z,26.55
2023-04-16T02:37:51.366Z,23.98
2023-04-16T02:40:19.332Z,28.35
2023-04-16T02:42:48.974Z,22.85
2023-04-16T02:45:17.056Z,28.48
2023-04-16T02:47:44.845Z,26.40
2023-04-16T02:50:12.987Z,26.15
2023-04-16T02:52:40.739Z,25.45
2023-04-16T02:55:09.612Z,26.40
2023-04-16T02:57:37.476Z,27.88
2023-04-16T03:00:08.000Z,23.33
2023-04-16T03:02:36.154Z,28.05
2023-04-16T03:05:04.295Z,23.85
2023-04-16T03:07:32.029Z,28.40
2023-04-16T03:10:00.294Z,29.42
2023-04-16T03:12:28.052Z,28.58
2023-04-16T03:14:55.916Z,29.85
2023-04-16T03:17:25.311Z,27.00
2023-04-16T03:19:53.091Z,28.27
2023-04-16T03:22:20.846Z,27.15
2023-04-16T03:24:48.596Z,24.67
2023-04-16T03:27:16.368Z,27.77
2023-04-16T03:29:45.472Z,27.52
2023-04-16T03:32:13.576Z,26.10
2023-04-16T03:34:42.795Z,26.20
2023-04-16T03:37:11.948Z,24.35
2023-04-16T03:39:40.323Z,28.17
2023-04-16T03:42:08.097Z,27.60
2023-04-16T03:44:36.208Z,27.10
2023-04-16T03:47:03.966Z,27.48
2023-04-16T03:49:31.751Z,29.80
2023-04-16T03:52:01.520Z,27.17
2023-04-16T03:54:29.464Z,30.17
2023-04-16T03:57:07.769Z,28.80
2023-04-16T03:59:35.735Z,29.75
2023-04-16T04:02:03.513Z,30.85
2023-04-16T04:04:32.748Z,31.02
2023-04-16T04:07:02.000Z,28.42
2023-04-16T04:09:29.735Z,28.08
2023-04-16T04:11:57.482Z,27.42
2023-04-16T04:14:25.359Z,27.55
2023-04-16T04:16:53.082Z,27.35
2023-04-16T04:19:20.847Z,25.27
2023-04-16T04:21:49.367Z,27.70
2023-04-16T04:24:19.966Z,27.92
2023-04-16T04:26:47.873Z,26.17
2023-04-16T04:29:15.649Z,26.90
2023-04-16T04:31:43.539Z,26.23
2023-04-16T04:34:11.424Z,26.80
2023-04-16T04:36:39.450Z,27.25
2023-04-16T04:39:07.478Z,28.33
2023-04-16T04:41:36.802Z,26.70
2023-04-16T04:44:05.062Z,29.45
2023-04-16T04:46:32.753Z,28.80
2023-04-16T04:49:00.663Z,27.67
2023-04-16T04:51:28.999Z,29.75
2023-04-16T04:53:57.888Z,27.60
2023-04-16T04:56:25.631Z,28.35
2023-04-16T04:58:54.790Z,28.67
2023-04-16T05:01:22.649Z,28.27
2023-04-16T05:03:50.495Z,29.27
2023-04-16T05:06:18.434Z,30.33
2023-04-16T05:08:46.201Z,29.52
2023-04-16T05:11:13.974Z,29.65
2023-04-16T05:13:41.773Z,30.33
2023-04-16T05:16:10.930Z,28.13
2023-04-16T05:18:38.731Z,28.23
2023-04-16T05:21:06.825Z,30.90
2023-04-16T05:23:34.567Z,30.33
2023-04-16T05:26:02.311Z,28.88
2023-04-16T05:28:31.102Z,31.48
2023-04-16T05:30:58.972Z,29.48
2023-04-16T05:33:28.201Z,30.23
2023-04-16T05:35:55.877Z,27.00
2023-04-16T05:38:23.633Z,31.10
2023-04-16T05:40:51.312Z,27.88
2023-04-16T05:43:19.189Z,28.77
2023-04-16T05:45:46.913Z,29.38
2023-04-16T05:48:14.774Z,29.45
2023-04-16T05:50:43.921Z,29.45
2023-04-16T05:53:13.959Z,29.60
2023-04-16T05:55:41.737Z,28.90
2023-04-16T05:58:09.478Z,28.52
2023-04-16T06:00:37.360Z,30.02
2023-04-16T06:03:05.497Z,29.42
2023-04-16T06:05:33.454Z,27.90
2023-04-16T06:08:02.597Z,28.52
2023-04-16T06:10:30.369Z,28.30
2023-04-16T06:12:58.153Z,29.50
2023-04-16T06:15:25.838Z,27.17
2023-04-16T06:17:53.647Z,31.00
2023-04-16T06:20:21.462Z,29.20
2023-04-16T06:22:49.229Z,29.88
2023-04-16T06:25:18.516Z,27.13
2023-04-16T06:27:46.243Z,27.23
2023-04-16T06:30:14.691Z,28.50
2023-04-16T06:32:43.308Z,28.35
2023-04-16T06:35:11.309Z,27.50
2023-04-16T06:37:39.259Z,25.13
2023-04-16T06:40:07.954Z,29.20
2023-04-16T06:42:37.134Z,27.95
2023-04-16T06:45:05.448Z,26.83
2023-04-16T06:47:33.208Z,27.10
2023-04-16T06:50:00.940Z,27.25
2023-04-16T06:52:29.757Z,26.08
2023-04-16T06:54:57.812Z,25.23
2023-04-16T06:57:25.797Z,24.27
2023-04-16T06:59:54.954Z,22.80
2023-04-16T07:02:22.849Z,23.80
2023-04-16T07:04:52.287Z,23.80
2023-04-16T07:07:20.055Z,25.20
2023-04-16T07:09:47.759Z,24.17
2023-04-16T07:12:15.567Z,23.73
2023-04-16T07:14:48.162Z,21.88
2023-04-16T07:17:17.345Z,23.30
2023-04-16T07:19:45.298Z,23.40
2023-04-16T07:22:13.055Z,23.85
2023-04-16T07:24:40.786Z,23.08
2023-04-16T07:27:08.548Z,21.85
2023-04-16T07:29:36.325Z,21.50
2023-04-16T07:32:04.145Z,21.55
2023-04-16T07:34:33.246Z,21.35
2023-04-16T07:37:00.974Z,22.48
2023-04-16T07:39:28.750Z,22.38
2023-04-16T07:41:56.537Z,22.60
2023-04-16T07:44:24.333Z,22.90
2023-04-16T07:46:52.059Z,22.77
2023-04-16T07:49:20.068Z,22.52
2023-04-16T07:51:49.207Z,22.58
2023-04-16T07:54:17.087Z,21.33
2023-04-16T07:56:44.847Z,21.55
2023-04-16T07:59:21.872Z,22.63
2023-04-16T08:01:51.704Z,19.98
2023-04-16T08:04:24.590Z,21.02
2023-04-16T08:06:55.182Z,22.88
2023-04-16T08:09:24.941Z,21.77
2023-04-16T08:11:52.765Z,21.45
2023-04-16T08:14:21.196Z,18.95
2023-04-16T08:16:48.890Z,21.85
2023-04-16T08:19:16.677Z,21.83
2023-04-16T08:21:44.583Z,22.45
2023-04-16T08:24:13.793Z,20.67
2023-04-16T08:26:41.589Z,22.58
2023-04-16T08:29:09.568Z,22.55
2023-04-16T08:31:37.664Z,21.70
2023-04-16T08:34:05.729Z,23.75
2023-04-16T08:36:33.460Z,20.77
2023-04-16T08:39:01.215Z,21.77
2023-04-16T08:41:33.239Z,20.42
2023-04-16T08:44:05.933Z,21.27
2023-04-16T08:46:37.954Z,23.33
2023-04-16T08:49:09.504Z,19.75
2023-04-16T08:51:40.384Z,22.00
2023-04-16T08:54:13.150Z,22.58
2023-04-16T08:56:43.396Z,21.88
2023-04-16T08:59:11.845Z,20.75
2023-04-16T09:01:41.787Z,19.98
2023-04-16T09:04:10.823Z,20.52
2023-04-16T09:06:41.366Z,21.42
2023-04-16T09:09:10.594Z,21.58
2023-04-16T09:11:39.375Z,20.73
2023-04-16T09:14:11.341Z,22.60
2023-04-16T09:16:40.460Z,23.13
2023-04-16T09:19:08.540Z,20.67
2023-04-16T09:21:37.100Z,21.30
2023-04-16T09:24:05.384Z,20.63
2023-04-16T09:26:33.751Z,21.08
2023-04-16T09:29:01.768Z,20.05
2023-04-16T09:31:30.977Z,20.00
2023-04-16T09:34:03.764Z,20.30
2023-04-16T09:36:32.452Z,20.75
2023-04-16T09:39:00.996Z,21.55
2023-04-16T09:41:30.555Z,20.95
2023-04-16T09:43:59.931Z,19.95
2023-04-16T09:46:32.870Z,20.05
2023-04-16T09:49:06.310Z,21.38
2023-04-16T09:51:38.302Z,21.05
2023-04-16T09:54:06.815Z,21.50
2023-04-16T09:56:34.940Z,20.60
2023-04-16T09:59:02.672Z,18.77
2023-04-16T10:01:33.121Z,18.92
2023-04-16T10:04:01.034Z,19.30
2023-04-16T10:06:31.160Z,17.25
2023-04-16T10:08:59.001Z,19.88
2023-04-16T10:11:27.095Z,19.63
2023-04-16T10:13:54.977Z,19.10
2023-04-16T10:16:23.781Z,19.70
2023-04-16T10:18:54.413Z,20.08
2023-04-16T10:21:22.597Z,20.15
2023-04-16T10:23:52.523Z,19.30
2023-04-16T10:26:22.625Z,19.77
2023-04-16T10:28:51.294Z,18.67
2023-04-16T10:31:19.145Z,18.02
2023-04-16T10:33:47.422Z,18.73
2023-04-16T10:36:18.400Z,18.30
2023-04-16T10:38:47.490Z,18.20
2023-04-16T10:41:15.537Z,17.95
2023-04-16T10:43:45.472Z,18.92
2023-04-16T10:46:19.610Z,18.80
2023-04-16T10:48:50.439Z,18.05
2023-04-16T10:51:28.739Z,19.52
2023-04-16T10:53:57.410Z,19.23
2023-04-16T10:56:26.163Z,17.60
2023-04-16T10:58:56.038Z,20.15
2023-04-16T11:01:32.139Z,17.73
2023-04-16T11:04:02.765Z,20.27
2023-04-16T11:06:32.827Z,18.80
2023-04-16T11:09:00.826Z,18.38
2023-04-16T11:11:38.513Z,19.17
2023-04-16T11:14:07.098Z,21.15
2023-04-16T11:16:34.834Z,19.48
2023-04-16T11:19:03.015Z,20.55
2023-04-16T11:21:32.587Z,20.38
2023-04-16T11:24:00.367Z,22.00
2023-04-16T11:26:30.865Z,21.95
2023-04-16T11:29:00.233Z,23.40
2023-04-16T11:31:28.152Z,22.27
2023-04-16T11:33:57.865Z,22.42
2023-04-16T11:36:27.738Z,22.92
2023-04-16T11:39:04.503Z,22.10
2023-04-16T11:41:32.435Z,19.50
2023-04-16T11:44:00.383Z,21.90
2023-04-16T11:46:39.445Z,23.35
2023-04-16T11:49:07.509Z,22.70
2023-04-16T11:51:40.975Z,21.05
2023-04-16T11:54:11.874Z,22.38
2023-04-16T11:56:46.431Z,19.98
2023-04-16T11:59:15.679Z,22.92
2023-04-16T12:01:48.082Z,21.15
2023-04-16T12:04:17.047Z,21.40
2023-04-16T12:07:06.730Z,20.02
2023-04-16T12:09:39.574Z,17.52
2023-04-16T12:12:26.400Z,19.83
2023-04-16T12:14:54.556Z,20.50
2023-04-16T12:17:22.567Z,21.55
2023-04-16T12:19:52.184Z,19.73
2023-04-16T12:22:28.382Z,19.77
2023-04-16T12:25:05.130Z,19.73
2023-04-16T12:27:47.567Z,20.90
2023-04-16T12:30:17.025Z,20.02
2023-04-16T12:32:46.310Z,21.15
2023-04-16T12:35:14.620Z,19.90
2023-04-16T12:37:42.434Z,20.83
2023-04-16T12:40:12.229Z,19.63
2023-04-16T12:42:39.998Z,20.20
2023-04-16T12:45:08.450Z,21.27
2023-04-16T12:47:36.195Z,19.40
2023-04-16T12:50:04.065Z,19.50
2023-04-16T12:52:31.874Z,21.55
2023-04-16T12:54:59.786Z,18.38
2023-04-16T12:57:29.453Z,20.23
2023-04-16T12:59:57.493Z,20.90
2023-04-16T13:02:26.009Z,18.23
2023-04-16T13:04:55.057Z,18.80
2023-04-16T13:07:24.098Z,20.55
2023-04-16T13:09:51.997Z,19.88
2023-04-16T13:12:19.750Z,20.23
2023-04-16T13:14:48.864Z,18.95
2023-04-16T13:17:16.756Z,19.25
2023-04-16T13:19:45.194Z,19.05
2023-04-16T13:22:12.994Z,19.27
2023-04-16T13:24:40.830Z,19.35
2023-04-16T13:27:08.958Z,20.05
2023-04-16T13:29:37.458Z,20.90
2023-04-16T13:32:07.308Z,18.42
2023-04-16T13:34:35.201Z,20.67
2023-04-16T13:37:02.963Z,19.70
2023-04-16T13:39:30.649Z,18.58
2023-04-16T13:41:58.423Z,18.92
2023-04-16T13:44:26.337Z,20.20
2023-04-16T13:46:54.191Z,20.10
2023-04-16T13:49:23.656Z,19.75
2023-04-16T13:51:51.521Z,19.02
2023-04-16T13:54:19.314Z,20.75
2023-04-16T13:56:47.189Z,20.05
2023-04-16T13:59:16.639Z,21.88
2023-04-16T14:01:44.469Z,19.80
2023-04-16T14:04:12.236Z,19.35
2023-04-16T14:06:41.465Z,18.13
2023-04-16T14:09:10.749Z,21.67
2023-04-16T14:11:38.877Z,20.98
2023-04-16T14:14:06.783Z,18.42
2023-04-16T14:16:34.827Z,20.00
2023-04-16T14:19:02.669Z,17.73
2023-04-16T14:21:31.598Z,20.27
2023-04-16T14:24:00.796Z,18.65
2023-04-16T14:26:28.609Z,18.80
2023-04-16T14:28:56.446Z,17.35
2023-04-16T14:31:24.250Z,15.98
2023-04-16T14:33:52.014Z,16.35
2023-04-16T14:36:20.423Z,16.58
2023-04-16T14:38:48.723Z,18.20
2023-04-16T14:41:17.826Z,17.88
2023-04-16T14:43:45.597Z,17.38
2023-04-16T14:46:13.451Z,17.98
2023-04-16T14:48:41.366Z,17.90
2023-04-16T14:51:09.680Z,17.00
2023-04-16T14:53:37.993Z,17.80
2023-04-16T14:56:06.423Z,17.65
2023-04-16T14:58:37.848Z,15.73
2023-04-16T15:01:06.921Z,16.85
2023-04-16T15:03:34.803Z,17.25
2023-04-16T15:06:03.063Z,16.70
2023-04-16T15:08:31.366Z,16.80
2023-04-16T15:10:59.211Z,16.38
2023-04-16T15:13:33.516Z,16.98
2023-04-16T15:16:02.801Z,14.05
2023-04-16T15:18:30.661Z,16.75
2023-04-16T15:20:58.918Z,17.08
2023-04-16T15:23:26.726Z,17.13
2023-04-16T15:25:54.495Z,15.50
2023-04-16T15:28:22.272Z,17.65
2023-04-16T15:30:50.018Z,15.77
2023-04-16T15:33:21.877Z,15.57
2023-04-16T15:35:51.455Z,15.68
2023-04-16T15:38:21.011Z,14.82
2023-04-16T15:40:49.063Z,18.45
2023-04-16T15:43:16.962Z,15.77
2023-04-16T15:45:44.798Z,15.13
2023-04-16T15:48:12.645Z,17.05
2023-04-16T15:50:41.882Z,16.77
2023-04-16T15:53:09.684Z,16.65
2023-04-16T15:55:37.473Z,13.57
2023-04-16T15:58:05.620Z,16.83
2023-04-16T16:00:33.418Z,15.05
2023-04-16T16:03:01.295Z,17.48
2023-04-16T16:05:29.159Z,15.23
2023-04-16T16:07:58.698Z,16.45
2023-04-16T16:10:26.569Z,14.32
2023-04-16T16:12:54.505Z,15.48
2023-04-16T16:15:22.252Z,15.13
2023-04-16T16:17:50.036Z,15.48
2023-04-16T16:20:17.797Z,15.73
2023-04-16T16:22:47.555Z,13.38
2023-04-16T16:25:17.222Z,16.13
2023-04-16T16:27:44.915Z,14.75
2023-04-16T16:30:13.643Z,13.25
2023-04-16T16:32:43.730Z,14.90
2023-04-16T16:35:12.058Z,13.88
2023-04-16T16:37:39.885Z,14.48
2023-04-16T16:40:08.783Z,12.82
2023-04-16T16:42:37.918Z,13.50
2023-04-16T16:45:06.415Z,13.57
2023-04-16T16:47:34.527Z,13.02
2023-04-16T16:50:03.181Z,14.40
2023-04-16T16:52:32.056Z,14.80
2023-04-16T16:54:59.756Z,14.82
2023-04-16T16:57:27.566Z,16.42
2023-04-16T16:59:56.638Z,14.93
2023-04-16T17:02:24.674Z,15.75
2023-04-16T17:04:52.860Z,15.00
2023-04-16T17:07:20.827Z,16.48
2023-04-16T17:09:48.576Z,15.75
2023-04-16T17:12:17.699Z,15.00
2023-04-16T17:14:45.867Z,17.15
2023-04-16T17:17:14.908Z,15.88
2023-04-16T17:19:42.755Z,16.45
2023-04-16T17:22:10.716Z,15.77
2023-04-16T17:24:38.506Z,15.88
2023-04-16T17:27:06.392Z,17.60
2023-04-16T17:29:34.155Z,13.35
2023-04-16T17:32:01.993Z,16.90
2023-04-16T17:34:31.143Z,16.55
2023-04-16T17:36:58.852Z,16.35
2023-04-16T17:39:26.667Z,15.60
2023-04-16T17:41:58.286Z,15.38
2023-04-16T17:44:27.956Z,16.27
2023-04-16T17:46:55.786Z,22.40
2023-04-16T17:49:23.484Z,19.33
2023-04-16T17:51:53.620Z,18.08
2023-04-16T17:54:21.391Z,15.65
2023-04-16T17:56:49.166Z,16.73
2023-04-16T17:59:16.907Z,15.38
2023-04-16T18:01:45.446Z,15.88
2023-04-16T18:04:13.596Z,16.00
2023-04-16T18:06:41.949Z,14.35
2023-04-16T18:09:12.022Z,17.10
2023-04-16T18:11:39.815Z,15.15
2023-04-16T18:14:09.930Z,15.10
2023-04-16T18:16:37.907Z,16.90
2023-04-16T18:19:05.862Z,16.42
2023-04-16T18:21:33.897Z,17.30
2023-04-16T18:24:03.415Z,17.00
2023-04-16T18:26:35.717Z,15.20
2023-04-16T18:29:04.122Z,14.55
2023-04-16T18:31:31.917Z,15.63
2023-04-16T18:33:59.770Z,17.08
2023-04-16T18:36:27.609Z,18.17
2023-04-16T18:41:27.119Z,18.67
2023-04-16T18:43:56.294Z,18.92
2023-04-16T18:46:24.307Z,18.52
2023-04-16T18:48:52.128Z,19.40
2023-04-16T18:51:19.902Z,17.10
2023-04-16T18:53:47.606Z,18.17
2023-04-16T18:56:15.440Z,17.83
2023-04-16T18:58:43.260Z,20.75
2023-04-16T19:01:13.923Z,18.10
2023-04-16T19:03:41.765Z,24.52
2023-04-16T19:06:09.654Z,19.38
2023-04-16T19:08:37.412Z,20.48
2023-04-16T19:11:05.175Z,19.80
2023-04-16T19:13:33.079Z,16.55
2023-04-16T19:16:02.311Z,18.83
2023-04-16T19:18:31.574Z,19.00
2023-04-16T19:21:02.391Z,19.88
2023-04-16T19:23:30.315Z,16.88
2023-04-16T19:26:01.474Z,16.85
2023-04-16T19:28:29.311Z,16.27
2023-04-16T19:30:57.097Z,17.45
2023-04-16T19:33:24.823Z,17.50
2023-04-16T19:35:53.926Z,16.15
2023-04-16T19:38:21.765Z,16.38
2023-04-16T19:40:49.950Z,17.90
2023-04-16T19:43:17.675Z,19.23
2023-04-16T19:45:46.028Z,14.77
2023-04-16T19:48:14.399Z,16.45
2023-04-16T19:50:43.120Z,16.92
2023-04-16T19:53:12.947Z,18.20
2023-04-16T19:55:40.866Z,17.77
2023-04-16T19:58:08.876Z,17.40
2023-04-16T20:00:38.200Z,17.08
2023-04-16T20:03:06.383Z,17.48
2023-04-16T20:05:34.249Z,17.05
2023-04-16T20:08:02.252Z,16.95
2023-04-16T20:10:31.941Z,16.25
2023-04-16T20:12:59.702Z,17.23
2023-04-16T20:15:27.508Z,17.58
2023-04-16T20:17:56.025Z,16.58
2023-04-16T20:20:24.055Z,16.65
2023-04-16T20:22:51.842Z,17.80
2023-04-16T20:25:20.378Z,17.85
2023-04-16T20:27:49.683Z,15.32
2023-04-16T20:30:18.102Z,17.17
2023-04-16T20:32:45.933Z,15.13
2023-04-16T20:35:13.746Z,15.15
2023-04-16T20:37:42.952Z,16.27
2023-04-16T20:40:14.966Z,15.20
2023-04-16T20:42:46.233Z,16.80
2023-04-16T20:45:16.283Z,16.77
2023-04-16T20:47:44.440Z,17.13
2023-04-16T20:50:12.447Z,16.20
2023-04-16T20:52:40.163Z,17.80
2023-04-16T20:55:09.171Z,17.50
2023-04-16T20:57:36.842Z,17.05
2023-04-16T21:00:09.137Z,18.17
2023-04-16T21:02:38.551Z,16.80
2023-04-16T21:05:08.987Z,16.20
2023-04-16T21:07:36.847Z,16.05
2023-04-16T21:10:05.091Z,17.52
2023-04-16T21:12:32.905Z,16.27
2023-04-16T21:15:00.702Z,15.88
2023-04-16T21:17:28.813Z,16.65
2023-04-16T21:19:58.078Z,16.20
2023-04-16T21:22:25.939Z,17.00
2023-04-16T21:24:53.688Z,17.25
2023-04-16T21:27:21.529Z,16.88
2023-04-16T21:29:49.292Z,14.93
2023-04-16T21:32:17.055Z,16.15
2023-04-16T21:34:44.805Z,15.35
2023-04-16T21:37:13.918Z,15.98
2023-04-16T21:39:41.731Z,16.45
2023-04-16T21:42:09.648Z,15.85
2023-04-16T21:44:37.490Z,13.95
2023-04-16T21:47:05.312Z,17.02
2023-04-16T21:49:33.213Z,14.93
2023-04-16T21:52:02.484Z,15.35
2023-04-16T21:54:31.744Z,16.25
2023-04-16T21:56:59.495Z,15.95
2023-04-16T21:59:27.330Z,17.92
2023-04-16T22:01:55.125Z,14.32
2023-04-16T22:04:26.210Z,17.38
2023-04-16T22:06:56.198Z,17.23
2023-04-16T22:09:24.759Z,18.25
2023-04-16T22:11:53.883Z,17.40
2023-04-16T22:14:21.642Z,16.35
2023-04-16T22:16:51.806Z,15.68
2023-04-16T22:19:19.745Z,17.80
2023-04-16T22:21:47.878Z,17.13
2023-04-16T22:24:16.066Z,17.50
2023-04-16T22:26:43.802Z,16.63
2023-04-16T22:29:13.198Z,14.85
2023-04-16T22:31:41.275Z,16.95
2023-04-16T22:34:09.080Z,16.38
2023-04-16T22:36:36.807Z,15.05
2023-04-16T22:39:08.362Z,15.85
2023-04-16T22:41:36.605Z,15.80
2023-04-16T22:44:09.463Z,15.45
2023-04-16T22:46:38.710Z,13.88
2023-04-16T22:49:06.634Z,13.32
2023-04-16T22:51:34.413Z,14.30
2023-04-16T22:54:02.097Z,12.07
2023-04-16T22:56:31.014Z,14.52
2023-04-16T22:58:58.715Z,13.63
2023-04-16T23:01:26.594Z,14.15
2023-04-16T23:03:55.795Z,13.32
2023-04-16T23:06:23.583Z,14.70
2023-04-16T23:08:51.393Z,13.05
2023-04-16T23:11:19.165Z,14.27
2023-04-16T23:13:46.918Z,14.48
2023-04-16T23:16:14.702Z,13.43
2023-04-16T23:18:42.481Z,13.93
2023-04-16T23:21:11.563Z,14.05
2023-04-16T23:23:39.330Z,14.43
2023-04-16T23:26:07.048Z,16.13
2023-04-16T23:28:34.793Z,18.42
2023-04-16T23:31:04.174Z,15.55
2023-04-16T23:33:33.263Z,15.13
2023-04-16T23:36:01.085Z,17.35
2023-04-16T23:38:30.716Z,15.40
2023-04-16T23:40:58.403Z,15.13
2023-04-16T23:43:26.296Z,15.93
2023-04-16T23:45:54.039Z,16.23
2023-04-16T23:48:21.759Z,15.10
2023-04-16T23:50:49.562Z,14.18
2023-04-16T23:53:17.324Z,14.60
2023-04-16T23:55:46.432Z,14.10
2023-04-16T23:58:14.180Z,18.30
